Terminal Aerodrome Forecast
Issued by NWS

Home | Current Version | Previous Version | Text Only | Print | Product List | Glossary Off
Versions: 1 2 3 4 5 6 7 8 9 10 11 12 13 14 15 16 17 18 19 20 21 22 23 24 25 26

107
FTUS45 KGGW 271701 AAA
TAFOLF
TAF AMD
KOLF 271701Z 2717/2812 08005KT P6SM SCT015 OVC090
      TEMPO 2717/2718 BKN015
     FM272000 10008KT P6SM VCSH SCT025 OVC050
     FM272300 06007KT P6SM VCSH OVC040
     FM280000 06007KT P6SM VCSH BKN050=

USA.gov is the U.S. government's official web portal to all federal, state and local government web resources and services.